Merigomish, Canada
Current Conditions -  °F | °C
As of 1:00 PM on Wednesday 22 Oct 2014 (Local Time) from CYPD Reporting Station
Overcast Overcast  
Wind Chill: 54°   Ceiling: 7500
Heat Index: 54°   Visibility: 9mi
Dew Point: 46°   Wind: 16mph
Humidity: 77%   Direction: 80°E
Pressure: 30.35"   Gusts: 24mph
Location:  45.62°N, 62.42°W
Report Text: CYPD 221600Z AUTO 08014G21KT 9SM SCT015 OVC075 12/08 A3035 RMK SLP282
Loading
Personal Weather Stations






























Interactive Weather Map
Tropical Storm Tracking
New forecast layout! Learn more

10-Day Weather Forecast

Advertisements
Track Severe Weather on mobile